Time;durP1;ratioP1;P1;durP2;ratioP2;P2;SDS_P1;SDS_P2;PMS_P1;PMS_P2;Temp;Humidity;BMP_temperature;BMP_pressure;BME280_temperature;BME280_humidity;BME280_pressure;Samples;Min_cycle;Max_cycle;Signal;HPM_P1;HPM_P2
2023/06/27 00:01:58;;;;;;;0.60;0.60;;;;;;;22.27;100.00;99143.34;5071280;28;20204;-63
2023/06/27 00:04:24;;;;;;;0.30;0.30;;;;;;;22.29;100.00;99148.44;5071045;28;20269;-63
2023/06/27 00:06:51;;;;;;;0.30;0.30;;;;;;;22.21;100.00;99150.84;5071003;28;20260;-63
2023/06/27 00:09:18;;;;;;;0.30;0.30;;;;;;;22.21;100.00;99172.56;5071079;28;20253;-63
2023/06/27 00:11:45;;;;;;;0.40;0.40;;;;;;;21.99;100.00;99177.88;5070977;28;20690;-63
2023/06/27 00:14:13;;;;;;;0.50;0.50;;;;;;;21.80;100.00;99168.03;5071138;28;20676;-63
2023/06/27 00:16:40;;;;;;;0.30;0.30;;;;;;;21.67;100.00;99172.59;5070926;28;20664;-63
2023/06/27 00:19:07;;;;;;;0.50;0.50;;;;;;;21.68;100.00;99165.59;5070866;28;20501;-63
2023/06/27 00:21:35;;;;;;;0.40;0.40;;;;;;;21.71;100.00;99162.72;5071152;28;20199;-63
2023/06/27 00:24:03;;;;;;;0.40;0.40;;;;;;;21.74;100.00;99158.09;5071007;28;20204;-63
2023/06/27 00:26:30;;;;;;;0.50;0.50;;;;;;;21.72;100.00;99167.81;5070672;28;20204;-63
2023/06/27 00:28:57;;;;;;;0.57;0.57;;;;;;;21.75;100.00;99162.34;5070623;28;20222;-63
2023/06/27 00:31:26;;;;;;;0.60;0.60;;;;;;;21.75;100.00;99149.31;5073645;28;20260;-63
2023/06/27 00:33:53;;;;;;;0.47;0.47;;;;;;;21.83;100.00;99161.75;5074815;28;20690;-63
2023/06/27 00:36:20;;;;;;;0.40;0.40;;;;;;;21.78;100.00;99153.44;5074940;28;20191;-63
2023/06/27 00:38:47;;;;;;;0.40;0.40;;;;;;;21.84;100.00;99161.59;5074606;28;20200;-63
2023/06/27 00:41:13;;;;;;;0.33;0.33;;;;;;;21.84;100.00;99158.19;5074499;28;20207;-63
2023/06/27 00:43:41;;;;;;;0.53;0.53;;;;;;;21.87;100.00;99153.53;5074686;28;20196;-63
2023/06/27 00:46:09;;;;;;;0.40;0.40;;;;;;;21.86;100.00;99154.50;5074575;28;20215;-63
2023/06/27 00:48:37;;;;;;;0.43;0.43;;;;;;;21.83;100.00;99162.59;5074782;28;20725;-63
2023/06/27 00:51:05;;;;;;;0.50;0.50;;;;;;;21.83;100.00;99164.34;5074699;28;20268;-63
2023/06/27 00:53:31;;;;;;;0.50;0.50;;;;;;;21.78;100.00;99149.06;5074401;28;20191;-63
2023/06/27 00:55:58;;;;;;;0.30;0.30;;;;;;;21.74;100.00;99137.22;5074599;28;20676;-63
2023/06/27 00:58:25;;;;;;;0.40;0.40;;;;;;;21.86;100.00;99157.13;5070625;28;20286;-63
2023/06/27 01:00:52;;;;;;;0.50;0.50;;;;;;;21.90;100.00;99162.94;5074232;28;20203;-63
2023/06/27 01:03:20;;;;;;;0.30;0.30;;;;;;;21.86;100.00;99167.56;5074268;28;20215;-63
2023/06/27 01:05:49;;;;;;;0.60;0.60;;;;;;;21.77;100.00;99160.47;5074141;28;20219;-63
2023/06/27 01:08:24;;;;;;;0.43;0.43;;;;;;;21.77;100.00;99162.25;5074088;28;20204;-63
2023/06/27 01:10:58;;;;;;;0.60;0.60;;;;;;;21.79;100.00;99166.38;5074335;28;20275;-63
2023/06/27 01:13:30;;;;;;;0.50;0.50;;;;;;;21.80;100.00;99160.22;5073969;28;20200;-63
2023/06/27 01:15:58;;;;;;;0.50;0.50;;;;;;;21.78;100.00;99163.88;5074078;28;20302;-63
2023/06/27 01:18:27;;;;;;;0.30;0.30;;;;;;;21.81;100.00;99167.06;5073811;28;20215;-63
2023/06/27 01:20:55;;;;;;;0.33;0.33;;;;;;;21.79;100.00;99163.78;5074250;28;20200;-63
2023/06/27 01:23:25;;;;;;;0.33;0.33;;;;;;;21.80;100.00;99173.28;5072590;28;20257;-63
2023/06/27 01:25:55;;;;;;;0.40;0.40;;;;;;;21.70;100.00;99153.25;5073786;28;20212;-63
2023/06/27 01:28:22;;;;;;;0.30;0.30;;;;;;;21.73;100.00;99166.03;5073519;28;20223;-63
2023/06/27 01:30:49;;;;;;;0.40;0.40;;;;;;;21.73;100.00;99160.81;5073784;28;20203;-63
2023/06/27 01:33:20;;;;;;;0.50;0.50;;;;;;;21.71;100.00;99155.72;5073570;28;20617;-63
2023/06/27 01:35:56;;;;;;;0.33;0.33;;;;;;;21.70;100.00;99159.28;5073934;28;20645;-63
2023/06/27 01:38:29;;;;;;;0.50;0.50;;;;;;;21.69;100.00;99162.84;5073467;28;20203;-63
2023/06/27 01:40:59;;;;;;;0.50;0.50;;;;;;;21.68;100.00;99158.56;5073223;28;20196;-63
2023/06/27 01:43:28;;;;;;;0.33;0.33;;;;;;;21.66;100.00;99157.88;5073644;28;20627;-63
2023/06/27 01:45:56;;;;;;;0.33;0.33;;;;;;;21.65;100.00;99158.00;5073778;28;20560;-63
2023/06/27 01:48:24;;;;;;;0.30;0.30;;;;;;;21.65;100.00;99153.59;5073438;28;20668;-63
2023/06/27 01:50:54;;;;;;;0.50;0.50;;;;;;;21.65;100.00;99150.97;5073482;28;20196;-63
2023/06/27 01:53:21;;;;;;;0.50;0.50;;;;;;;21.65;100.00;99148.38;5073130;28;20214;-63
2023/06/27 01:55:48;;;;;;;0.50;0.50;;;;;;;21.65;100.00;99150.97;5073438;28;20660;-63
2023/06/27 01:58:16;;;;;;;0.67;0.67;;;;;;;21.63;100.00;99152.91;5073403;28;20209;-63
2023/06/27 02:00:43;;;;;;;0.40;0.40;;;;;;;21.61;100.00;99146.97;5073420;28;20205;-63
2023/06/27 02:03:10;;;;;;;0.40;0.40;;;;;;;21.59;100.00;99154.09;5073139;28;20204;-63
2023/06/27 02:05:37;;;;;;;0.30;0.30;;;;;;;21.58;100.00;99157.66;5073221;28;20242;-63
2023/06/27 02:08:03;;;;;;;0.60;0.60;;;;;;;21.56;100.00;99159.53;5073167;28;20196;-63
2023/06/27 02:10:30;;;;;;;0.40;0.40;;;;;;;21.53;100.00;99154.56;5072805;28;20200;-63
2023/06/27 02:12:57;;;;;;;0.47;0.47;;;;;;;21.53;100.00;99157.19;5073179;28;20733;-63
2023/06/27 02:15:25;;;;;;;0.30;0.30;;;;;;;21.51;100.00;99161.69;5072703;28;20262;-63
2023/06/27 02:17:52;;;;;;;0.40;0.40;;;;;;;21.48;100.00;99156.72;5073089;28;20753;-63
2023/06/27 02:20:19;;;;;;;0.70;0.70;;;;;;;21.48;100.00;99161.94;5072971;28;20208;-63
2023/06/27 02:22:45;;;;;;;0.40;0.40;;;;;;;21.46;100.00;99158.59;5072818;28;20203;-63
2023/06/27 02:25:12;;;;;;;0.50;0.50;;;;;;;21.43;100.00;99159.69;5072548;28;20223;-63
2023/06/27 02:27:39;;;;;;;0.53;0.53;;;;;;;21.41;100.00;99160.75;5072523;28;20203;-63
2023/06/27 02:30:07;;;;;;;0.53;0.53;;;;;;;21.35;100.00;99163.84;5072837;28;20194;-63
2023/06/27 02:32:35;;;;;;;0.63;0.63;;;;;;;21.30;100.00;99165.97;5072396;28;20210;-63
2023/06/27 02:35:02;;;;;;;0.40;0.40;;;;;;;21.25;100.00;99165.50;5072565;28;20196;-63
2023/06/27 02:37:28;;;;;;;0.30;0.30;;;;;;;21.16;100.00;99155.78;5072300;28;20290;-63
2023/06/27 02:39:56;;;;;;;0.50;0.50;;;;;;;21.10;100.00;99161.50;5072502;28;20629;-63
2023/06/27 02:42:23;;;;;;;0.50;0.50;;;;;;;21.08;100.00;99176.38;5072635;28;20203;-63
2023/06/27 02:44:50;;;;;;;0.40;0.40;;;;;;;21.05;100.00;99179.22;5072337;28;20207;-62
2023/06/27 02:47:17;;;;;;;0.40;0.40;;;;;;;21.07;100.00;99177.31;5072258;28;20203;-63
2023/06/27 02:49:45;;;;;;;0.57;0.57;;;;;;;21.08;100.00;99171.16;5072155;28;20200;-62
2023/06/27 02:52:12;;;;;;;0.50;0.50;;;;;;;21.05;100.00;99174.00;5072111;28;20195;-63
2023/06/27 02:54:38;;;;;;;0.50;0.50;;;;;;;21.02;100.00;99171.63;5071295;28;20254;-63
2023/06/27 02:57:06;;;;;;;0.40;0.40;;;;;;;21.01;100.00;99177.78;5072260;28;20554;-63
2023/06/27 02:59:33;;;;;;;0.80;0.80;;;;;;;20.98;100.00;99178.84;5072164;28;20199;-63
2023/06/27 03:01:59;;;;;;;0.47;0.47;;;;;;;20.97;100.00;99181.59;5072316;28;20572;-63
2023/06/27 03:04:26;;;;;;;0.80;0.80;;;;;;;20.94;100.00;99186.06;5071975;28;20264;-63
2023/06/27 03:06:54;;;;;;;0.43;0.43;;;;;;;20.92;100.00;99190.56;5071694;28;20216;-62
2023/06/27 03:09:21;;;;;;;0.77;0.77;;;;;;;20.88;100.00;99185.69;5072101;28;20801;-63
2023/06/27 03:11:47;;;;;;;0.57;0.57;;;;;;;20.90;100.00;99186.44;5071698;28;20207;-62
2023/06/27 03:14:17;;;;;;;0.60;0.60;;;;;;;20.87;100.00;99171.03;5071940;28;20252;-63
2023/06/27 03:16:44;;;;;;;0.60;0.60;;;;;;;20.94;100.00;99188.66;5071655;28;20197;-62
2023/06/27 03:19:11;;;;;;;0.40;0.40;;;;;;;20.87;100.00;99169.22;5071738;28;20250;-63
2023/06/27 03:21:37;;;;;;;0.50;0.50;;;;;;;20.94;100.00;99180.84;5071745;28;20674;-63
2023/06/27 03:24:06;;;;;;;0.60;0.60;;;;;;;21.01;100.00;99193.41;5071508;28;20192;-63
2023/06/27 03:26:33;;;;;;;0.40;0.40;;;;;;;21.03;100.00;99186.31;5071376;28;20226;-63
2023/06/27 03:29:00;;;;;;;0.57;0.57;;;;;;;21.05;100.00;99184.41;5071377;28;20220;-63
2023/06/27 03:31:27;;;;;;;0.70;0.70;;;;;;;21.09;100.00;99180.63;5071610;28;20269;-62
2023/06/27 03:33:54;;;;;;;0.50;0.50;;;;;;;21.08;100.00;99185.00;5071196;28;20690;-63
2023/06/27 03:36:21;;;;;;;0.50;0.50;;;;;;;21.14;100.00;99178.53;5071599;28;20254;-63
2023/06/27 03:38:48;;;;;;;0.40;0.40;;;;;;;21.24;100.00;99185.53;5071333;28;20257;-63
2023/06/27 03:41:16;;;;;;;0.63;0.63;;;;;;;21.21;100.00;99180.56;5071413;28;20203;-63
2023/06/27 03:43:43;;;;;;;0.70;0.70;;;;;;;21.35;100.00;99187.31;5071396;28;20195;-63
2023/06/27 03:46:12;;;;;;;0.60;0.60;;;;;;;21.48;100.00;99182.81;5071069;28;20212;-63
2023/06/27 03:48:38;;;;;;;0.70;0.70;;;;;;;21.51;100.00;99182.56;5071515;28;20196;-63
2023/06/27 03:51:05;;;;;;;0.43;0.43;;;;;;;21.64;100.00;99185.88;5071166;28;20265;-63
2023/06/27 03:53:32;;;;;;;0.40;0.40;;;;;;;21.79;100.00;99182.03;5071439;28;20569;-63
2023/06/27 03:56:01;;;;;;;0.50;0.50;;;;;;;21.94;100.00;99185.22;5070969;28;20238;-63
2023/06/27 03:58:29;;;;;;;0.50;0.50;;;;;;;22.10;100.00;99195.28;5071535;28;20332;-63
2023/06/27 04:00:56;;;;;;;0.50;0.50;;;;;;;22.23;100.00;99185.50;5070852;28;20748;-63
2023/06/27 04:03:22;;;;;;;0.50;0.50;;;;;;;22.41;100.00;99184.00;5071271;28;20207;-63
2023/06/27 04:05:49;;;;;;;0.67;0.67;;;;;;;22.64;100.00;99198.63;5071246;28;20647;-63
2023/06/27 04:08:16;;;;;;;0.40;0.40;;;;;;;22.80;100.00;99188.56;5070984;28;20196;-63
2023/06/27 04:10:42;;;;;;;0.47;0.47;;;;;;;22.97;100.00;99187.97;5071036;28;20664;-63
2023/06/27 04:13:09;;;;;;;0.50;0.50;;;;;;;23.13;100.00;99181.47;5070820;28;20210;-63
2023/06/27 04:15:39;;;;;;;0.33;0.33;;;;;;;23.29;100.00;99198.34;5071016;28;20199;-63
2023/06/27 04:18:06;;;;;;;0.50;0.50;;;;;;;23.46;100.00;99196.88;5071335;28;20722;-63
2023/06/27 04:20:33;;;;;;;0.87;0.87;;;;;;;23.65;100.00;99199.56;5071226;28;20281;-63
2023/06/27 04:23:00;;;;;;;0.50;0.50;;;;;;;23.85;100.00;99201.28;5070821;28;20199;-63
2023/06/27 04:25:31;;;;;;;1.00;1.00;;;;;;;23.98;100.00;99212.31;5070971;28;20257;-63
2023/06/27 04:27:58;;;;;;;0.60;0.60;;;;;;;24.13;100.00;99220.66;5070782;28;20227;-63
2023/06/27 04:30:24;;;;;;;1.40;0.67;;;;;;;24.24;100.00;99217.91;5071202;28;20200;-63
2023/06/27 04:32:55;;;;;;;1.13;0.60;;;;;;;24.29;100.00;99217.50;5071122;28;20290;-63
2023/06/27 04:35:23;;;;;;;0.70;0.70;;;;;;;24.35;100.00;99220.41;5070787;28;20196;-63
2023/06/27 04:37:51;;;;;;;0.50;0.50;;;;;;;24.49;100.00;99221.78;5070925;28;20690;-63
2023/06/27 04:40:18;;;;;;;0.70;0.70;;;;;;;24.66;100.00;99213.22;5070678;28;20239;-64
2023/06/27 04:42:45;;;;;;;0.67;0.67;;;;;;;24.81;100.00;99209.22;5070940;28;20664;-63
2023/06/27 04:45:12;;;;;;;0.70;0.70;;;;;;;24.95;100.00;99214.03;5070578;28;20200;-63
2023/06/27 04:47:39;;;;;;;0.80;0.80;;;;;;;25.10;100.00;99203.09;5070801;28;20212;-63
2023/06/27 04:50:07;;;;;;;1.80;0.83;;;;;;;25.35;98.48;99212.94;5070664;28;20277;-63
2023/06/27 04:52:34;;;;;;;0.50;0.50;;;;;;;25.49;98.15;99217.72;5070794;28;20626;-63
2023/06/27 04:55:01;;;;;;;0.60;0.60;;;;;;;25.70;97.18;99214.88;5067991;28;20245;-63
2023/06/27 04:57:27;;;;;;;0.93;0.70;;;;;;;25.89;93.61;99215.59;5070482;28;20200;-64
2023/06/27 04:59:54;;;;;;;0.40;0.40;;;;;;;26.01;89.63;99218.88;5070935;28;20253;-64
2023/06/27 05:02:21;;;;;;;0.50;0.40;;;;;;;26.18;90.77;99219.84;5070595;28;20691;-63
2023/06/27 05:04:49;;;;;;;0.40;0.40;;;;;;;26.40;90.25;99222.03;5070752;28;20257;-63
2023/06/27 05:07:17;;;;;;;0.60;0.60;;;;;;;26.59;89.34;99227.16;5070614;28;20644;-63
2023/06/27 05:09:44;;;;;;;0.90;0.90;;;;;;;26.69;87.16;99225.25;5070502;28;20196;-63
2023/06/27 05:12:10;;;;;;;0.40;0.40;;;;;;;26.90;87.74;99233.69;5070485;28;20204;-63
2023/06/27 05:14:37;;;;;;;0.50;0.50;;;;;;;26.96;86.72;99227.78;5066625;28;20249;-63
2023/06/27 05:17:04;;;;;;;1.07;0.97;;;;;;;27.18;85.54;99241.41;5072066;28;20226;-63
2023/06/27 05:19:31;;;;;;;0.60;0.60;;;;;;;27.33;85.11;99242.50;5074133;28;20684;-64
2023/06/27 05:21:58;;;;;;;0.53;0.53;;;;;;;27.54;83.04;99232.44;5073959;28;20195;-63
2023/06/27 05:24:26;;;;;;;0.63;0.63;;;;;;;27.64;82.15;99233.97;5073774;28;20636;-63
2023/06/27 05:26:52;;;;;;;0.60;0.60;;;;;;;27.73;81.51;99237.44;5073813;28;20269;-64
2023/06/27 05:29:19;;;;;;;0.40;0.40;;;;;;;27.91;81.38;99240.00;5073644;28;20305;-64
2023/06/27 05:31:46;;;;;;;0.60;0.60;;;;;;;28.07;81.38;99251.44;5073921;28;20253;-64
2023/06/27 05:34:13;;;;;;;1.00;1.00;;;;;;;28.19;77.80;99249.31;5073798;28;20672;-64
2023/06/27 05:36:41;;;;;;;0.50;0.50;;;;;;;28.40;80.28;99248.88;5073645;28;20204;-63
2023/06/27 05:39:07;;;;;;;0.80;0.50;;;;;;;28.41;78.67;99250.50;5074000;28;20196;-64
2023/06/27 05:41:35;;;;;;;0.70;0.70;;;;;;;28.49;78.00;99250.50;5072496;28;20203;-64
2023/06/27 05:44:02;;;;;;;0.30;0.30;;;;;;;28.66;77.64;99252.19;5073756;28;20640;-64
2023/06/27 05:46:34;;;;;;;0.50;0.50;;;;;;;28.67;76.11;99248.56;5073730;28;20274;-64
2023/06/27 05:49:02;;;;;;;0.40;0.40;;;;;;;28.85;76.75;99245.78;5073747;28;20675;-64
2023/06/27 05:51:29;;;;;;;0.40;0.40;;;;;;;28.99;75.31;99240.63;5073780;28;20204;-64
2023/06/27 05:53:55;;;;;;;0.35;0.35;;;;;;;29.10;73.99;99253.50;5073248;28;20208;-64
2023/06/27 05:56:22;;;;;;;0.47;0.47;;;;;;;29.22;72.61;99246.03;5073800;28;20667;-64
2023/06/27 05:58:50;;;;;;;0.70;0.70;;;;;;;29.36;72.57;99249.84;5073192;28;20200;-64
2023/06/27 06:01:17;;;;;;;0.50;0.50;;;;;;;29.44;73.83;99247.16;5073306;28;20200;-64
2023/06/27 06:03:44;;;;;;;0.50;0.50;;;;;;;29.60;71.19;99253.22;5073356;28;20245;-64
2023/06/27 06:06:11;;;;;;;0.43;0.43;;;;;;;29.74;71.71;99246.41;5073102;28;20299;-64
2023/06/27 06:08:38;;;;;;;0.68;0.68;;;;;;;29.85;73.13;99246.06;5073632;28;20286;-64
2023/06/27 06:11:05;;;;;;;0.65;0.65;;;;;;;29.99;71.49;99253.25;5072906;28;20191;-64
2023/06/27 06:13:31;;;;;;;0.50;0.50;;;;;;;30.17;70.10;99256.47;5073352;28;20998;-64
2023/06/27 06:15:59;;;;;;;0.43;0.43;;;;;;;30.28;68.09;99251.75;5073099;28;20261;-64
2023/06/27 06:18:26;;;;;;;0.82;0.80;;;;;;;30.45;67.36;99258.59;5073199;28;20196;-64
2023/06/27 06:20:53;;;;;;;1.02;0.73;;;;;;;30.55;68.44;99251.25;5072812;28;20249;-64
2023/06/27 06:23:19;;;;;;;0.50;0.50;;;;;;;30.70;66.88;99249.47;5072834;28;20207;-65
2023/06/27 06:25:46;;;;;;;0.50;0.50;;;;;;;30.84;66.89;99259.28;5073215;28;20200;-64
2023/06/27 06:28:13;;;;;;;0.68;0.68;;;;;;;30.99;67.28;99262.81;5071338;28;20220;-64
2023/06/27 06:30:40;;;;;;;0.52;0.52;;;;;;;31.23;66.43;99259.13;5072497;28;20196;-65
2023/06/27 06:33:08;;;;;;;0.57;0.55;;;;;;;31.29;64.07;99247.78;5072385;28;20200;-64
2023/06/27 06:35:34;;;;;;;0.52;0.52;;;;;;;31.37;62.11;99257.50;5073006;28;20192;-64
2023/06/27 06:38:02;;;;;;;0.70;0.70;;;;;;;31.42;64.95;99253.28;5072413;28;20192;-64
2023/06/27 06:40:30;;;;;;;0.50;0.50;;;;;;;31.65;61.50;99258.50;5072715;28;20199;-65
2023/06/27 06:42:57;;;;;;;0.68;0.68;;;;;;;31.70;62.65;99240.22;5072562;28;20202;-64
2023/06/27 06:45:23;;;;;;;0.50;0.50;;;;;;;31.96;63.90;99248.50;5071686;28;20262;-64
2023/06/27 06:47:51;;;;;;;1.60;0.60;;;;;;;32.10;62.84;99252.97;5071963;28;20228;-65
2023/06/27 06:50:19;;;;;;;0.70;0.60;;;;;;;32.28;63.77;99249.88;5071167;28;20247;-64
2023/06/27 06:52:46;;;;;;;0.45;0.40;;;;;;;32.41;61.43;99247.38;5072231;28;20660;-65
2023/06/27 06:55:13;;;;;;;0.68;0.68;;;;;;;32.28;60.87;99249.88;5071816;28;20207;-65
2023/06/27 06:57:40;;;;;;;0.60;0.60;;;;;;;32.07;58.80;99247.22;5072417;28;20656;-64
2023/06/27 07:00:08;;;;;;;0.40;0.40;;;;;;;32.17;58.86;99242.44;5072194;28;20195;-64
2023/06/27 07:02:35;;;;;;;0.50;0.50;;;;;;;31.90;59.37;99235.97;5072153;28;20656;-64
2023/06/27 07:05:01;;;;;;;0.50;0.50;;;;;;;31.39;62.89;99236.94;5071765;28;20204;-64
2023/06/27 07:07:30;;;;;;;0.60;0.57;;;;;;;31.65;61.85;99245.25;5071682;28;20603;-64
2023/06/27 07:09:56;;;;;;;1.10;0.70;;;;;;;31.84;61.29;99241.22;5071620;28;20732;-64
2023/06/27 07:12:23;;;;;;;0.93;0.93;;;;;;;32.10;59.48;99238.91;5071377;28;20264;-64
2023/06/27 07:14:50;;;;;;;0.57;0.57;;;;;;;32.13;60.06;99238.50;5071809;28;20261;-64
2023/06/27 07:17:16;;;;;;;0.75;0.75;;;;;;;32.09;61.24;99246.03;5071547;28;20214;-65
2023/06/27 07:19:43;;;;;;;0.60;0.60;;;;;;;32.10;60.94;99242.38;5072206;28;20579;-64
2023/06/27 07:22:10;;;;;;;0.85;0.85;;;;;;;32.17;59.47;99243.28;5071797;28;20392;-64
2023/06/27 07:24:38;;;;;;;0.55;0.55;;;;;;;32.17;59.27;99237.97;5071944;28;20196;-65
2023/06/27 07:27:05;;;;;;;0.80;0.80;;;;;;;31.72;60.84;99230.28;5071709;28;20646;-64
2023/06/27 07:29:32;;;;;;;0.50;0.50;;;;;;;31.84;61.11;99231.44;5071273;28;20677;-65
2023/06/27 07:31:59;;;;;;;0.47;0.47;;;;;;;32.09;61.79;99238.06;5071603;28;20283;-65
2023/06/27 07:34:26;;;;;;;1.42;0.50;;;;;;;32.31;56.90;99235.44;5071243;28;20265;-65
2023/06/27 07:36:52;;;;;;;0.52;0.52;;;;;;;32.11;56.59;99232.59;5071452;28;20592;-65
2023/06/27 07:39:19;;;;;;;0.45;0.45;;;;;;;32.06;57.21;99235.78;5071077;28;20200;-64
2023/06/27 07:41:47;;;;;;;0.50;0.50;;;;;;;31.87;57.40;99232.88;5070985;28;20204;-64
2023/06/27 07:44:14;;;;;;;0.57;0.57;;;;;;;32.03;57.16;99230.84;5071415;28;20258;-64
2023/06/27 07:46:41;;;;;;;0.50;0.50;;;;;;;32.28;58.47;99227.88;5071379;28;20609;-64
2023/06/27 07:49:08;;;;;;;0.50;0.50;;;;;;;32.51;57.38;99231.13;5071720;28;20195;-64
2023/06/27 07:51:35;;;;;;;0.95;0.50;;;;;;;32.71;57.41;99235.63;5071046;28;20200;-64
2023/06/27 07:54:02;;;;;;;0.85;0.85;;;;;;;32.92;54.67;99228.66;5071302;28;20262;-64
2023/06/27 07:56:29;;;;;;;0.30;0.30;;;;;;;33.01;53.48;99228.31;5071013;28;20207;-65
2023/06/27 07:58:58;;;;;;;0.57;0.57;;;;;;;33.21;53.65;99224.00;5071312;28;20261;-65
2023/06/27 08:01:25;;;;;;;0.60;0.60;;;;;;;33.44;53.00;99225.53;5070783;28;20259;-64
2023/06/27 08:03:52;;;;;;;0.73;0.50;;;;;;;33.68;55.53;99217.09;5071182;28;20204;-65
2023/06/27 08:06:19;;;;;;;0.50;0.50;;;;;;;33.88;52.41;99223.31;5071074;28;20249;-65
2023/06/27 08:08:46;;;;;;;0.80;0.80;;;;;;;33.74;50.49;99222.44;5070500;28;20273;-65
2023/06/27 08:11:13;;;;;;;0.43;0.43;;;;;;;33.65;50.13;99206.84;5071220;28;20199;-65
2023/06/27 08:13:41;;;;;;;0.55;0.55;;;;;;;33.15;49.90;99227.41;5070795;28;20229;-65
2023/06/27 08:16:09;;;;;;;0.90;0.60;;;;;;;32.99;50.58;99226.88;5071263;28;20192;-65
2023/06/27 08:18:36;;;;;;;0.52;0.52;;;;;;;32.68;51.50;99229.88;5070865;28;20258;-65
2023/06/27 08:21:04;;;;;;;3.25;0.68;;;;;;;32.73;51.89;99224.84;5070319;28;20269;-65
2023/06/27 08:23:31;;;;;;;1.20;1.20;;;;;;;32.88;52.09;99225.56;5071026;28;20698;-65
2023/06/27 08:25:58;;;;;;;0.50;0.50;;;;;;;33.06;53.38;99223.22;5071387;28;20660;-64
2023/06/27 08:28:24;;;;;;;0.50;0.50;;;;;;;33.28;52.98;99212.56;5071063;28;20227;-65
2023/06/27 08:30:51;;;;;;;0.65;0.65;;;;;;;33.50;49.98;99214.13;5070797;28;20196;-65
2023/06/27 08:33:19;;;;;;;0.40;0.40;;;;;;;33.38;49.86;99215.69;5071021;28;20287;-65
2023/06/27 08:35:46;;;;;;;5.40;0.70;;;;;;;33.08;49.30;99218.56;5070393;28;20258;-65
2023/06/27 08:38:13;;;;;;;0.50;0.50;;;;;;;33.22;51.65;99212.31;5070841;28;20211;-65
2023/06/27 08:40:43;;;;;;;0.50;0.50;;;;;;;33.47;50.16;99193.25;5070719;28;20208;-65
2023/06/27 08:43:11;;;;;;;0.77;0.77;;;;;;;33.65;50.81;99188.22;5071363;28;20323;-65
2023/06/27 08:45:38;;;;;;;0.60;0.60;;;;;;;33.93;48.94;99210.22;5070924;28;20208;-65
2023/06/27 08:48:07;;;;;;;0.57;0.57;;;;;;;34.11;48.05;99213.16;5070711;28;20217;-65
2023/06/27 08:50:38;;;;;;;0.52;0.52;;;;;;;34.19;47.06;99204.16;5070901;28;20204;-65
2023/06/27 08:53:08;;;;;;;0.50;0.50;;;;;;;34.36;45.39;99205.41;5074228;28;20200;-65
2023/06/27 08:55:40;;;;;;;0.60;0.60;;;;;;;34.44;47.06;99207.91;5074907;28;20200;-65
2023/06/27 08:58:12;;;;;;;0.32;0.32;;;;;;;34.46;45.30;99205.00;5074614;28;20192;-65
2023/06/27 09:00:39;;;;;;;0.40;0.40;;;;;;;34.58;46.05;99204.19;5074572;28;20204;-66
2023/06/27 09:03:07;;;;;;;3.60;0.60;;;;;;;34.59;43.80;99210.34;5074308;28;20196;-65
2023/06/27 09:05:36;;;;;;;0.60;0.60;;;;;;;34.35;43.26;99197.66;5074695;28;20211;-65
2023/06/27 09:08:03;;;;;;;0.50;0.50;;;;;;;34.09;42.99;99204.53;5074486;28;20718;-65
2023/06/27 09:10:29;;;;;;;0.60;0.60;;;;;;;33.59;43.66;99196.97;5074397;28;20196;-65
2023/06/27 09:12:59;;;;;;;0.57;0.57;;;;;;;32.64;45.34;99202.06;5074196;28;20641;-65
2023/06/27 09:15:26;;;;;;;0.43;0.43;;;;;;;32.48;46.35;99197.00;5074332;28;20203;-65
2023/06/27 09:17:53;;;;;;;0.60;0.60;;;;;;;32.57;45.25;99198.56;5073909;28;20200;-65
2023/06/27 09:20:20;;;;;;;0.65;0.63;;;;;;;32.45;46.50;99197.41;5074381;28;20200;-65
2023/06/27 09:22:48;;;;;;;0.50;0.50;;;;;;;32.48;46.36;99181.09;5073873;28;20278;-65
2023/06/27 09:25:16;;;;;;;0.50;0.50;;;;;;;32.71;45.06;99193.16;5073897;28;20668;-65
2023/06/27 09:27:43;;;;;;;0.40;0.40;;;;;;;32.77;46.25;99175.63;5073849;28;20724;-65
2023/06/27 09:30:12;;;;;;;0.30;0.30;;;;;;;33.15;46.30;99184.09;5073913;28;20200;-65
2023/06/27 09:32:53;;;;;;;0.40;0.40;;;;;;;33.57;47.04;99193.72;5074287;28;20192;-65
2023/06/27 09:35:21;;;;;;;1.83;0.55;;;;;;;33.85;45.81;99181.16;5073883;28;20207;-65
2023/06/27 09:37:49;;;;;;;0.45;0.45;;;;;;;34.04;46.68;99191.00;5073957;28;20288;-65
2023/06/27 09:40:20;;;;;;;0.30;0.30;;;;;;;34.16;45.75;99189.41;5074022;28;20204;-65
2023/06/27 09:42:51;;;;;;;0.40;0.40;;;;;;;34.10;44.50;99184.88;5073656;28;20207;-65
2023/06/27 09:45:18;;;;;;;0.40;0.40;;;;;;;34.22;42.38;99187.78;5073514;28;20199;-65
2023/06/27 09:47:45;;;;;;;2.30;0.60;;;;;;;34.31;42.33;99191.09;5073830;28;20234;-65
2023/06/27 09:50:12;;;;;;;0.63;0.63;;;;;;;34.18;39.96;99186.56;5073477;28;20192;-65
2023/06/27 09:52:38;;;;;;;0.50;0.50;;;;;;;34.06;43.12;99178.31;5073702;28;20200;-65
2023/06/27 09:55:17;;;;;;;0.40;0.40;;;;;;;34.19;39.96;99190.84;5073315;28;20745;-66
2023/06/27 09:57:44;;;;;;;0.40;0.40;;;;;;;34.42;41.37;99187.81;5073738;28;20710;-65
2023/06/27 10:00:12;;;;;;;0.70;0.60;;;;;;;34.68;40.20;99186.00;5073537;28;21059;-65
2023/06/27 10:02:39;;;;;;;0.60;0.60;;;;;;;34.96;40.89;99179.63;5073410;28;20200;-65
2023/06/27 10:05:06;;;;;;;0.88;0.88;;;;;;;35.01;42.05;99182.47;5073366;28;20192;-66
2023/06/27 10:07:32;;;;;;;0.70;0.65;;;;;;;34.96;38.54;99185.75;5073342;28;20220;-65
2023/06/27 10:09:59;;;;;;;0.32;0.32;;;;;;;34.69;41.47;99189.50;5073373;28;20231;-65
2023/06/27 10:12:28;;;;;;;0.60;0.60;;;;;;;34.77;38.49;99182.09;5073356;28;20668;-65
2023/06/27 10:14:57;;;;;;;0.40;0.40;;;;;;;34.77;40.02;99186.59;5073477;28;20254;-65
2023/06/27 10:17:24;;;;;;;0.65;0.65;;;;;;;34.58;42.38;99179.41;5072968;28;20203;-65
2023/06/27 10:19:51;;;;;;;0.55;0.55;;;;;;;34.42;39.82;99185.16;5073590;28;20610;-65
2023/06/27 10:22:21;;;;;;;0.50;0.50;;;;;;;34.24;38.42;99175.13;5072730;28;20208;-65
2023/06/27 10:24:52;;;;;;;0.70;0.70;;;;;;;34.14;39.04;99169.38;5072998;28;20200;-66
2023/06/27 10:27:22;;;;;;;0.50;0.50;;;;;;;34.34;39.76;99169.38;5072534;28;20212;-65
2023/06/27 10:29:50;;;;;;;0.75;0.75;;;;;;;34.52;39.30;99169.59;5072733;28;20312;-65
2023/06/27 10:32:18;;;;;;;0.50;0.50;;;;;;;34.74;38.51;99160.38;5072554;28;20668;-65
2023/06/27 10:34:46;;;;;;;0.63;0.52;;;;;;;34.78;38.96;99158.94;5072856;28;20200;-65
2023/06/27 10:37:23;;;;;;;0.57;0.57;;;;;;;34.56;39.23;99163.66;5072771;28;20200;-65
2023/06/27 10:39:56;;;;;;;0.63;0.50;;;;;;;34.65;39.54;99156.28;5072917;28;20576;-65
2023/06/27 10:42:31;;;;;;;0.60;0.60;;;;;;;34.57;39.76;99159.16;5072404;28;20193;-65
2023/06/27 10:45:10;;;;;;;2.17;0.65;;;;;;;34.26;39.01;99146.44;5072604;28;20200;-65
2023/06/27 10:47:41;;;;;;;0.77;0.77;;;;;;;34.00;39.17;99141.88;5072538;28;20276;-66
2023/06/27 10:50:13;;;;;;;0.47;0.47;;;;;;;34.17;40.87;99126.38;5072635;28;20722;-65
2023/06/27 10:52:40;;;;;;;0.50;0.50;;;;;;;34.44;40.50;99127.22;5072426;28;20203;-65
2023/06/27 10:55:24;;;;;;;0.50;0.50;;;;;;;34.48;40.68;99141.72;5072716;28;20200;-66
2023/06/27 10:58:02;;;;;;;0.70;0.70;;;;;;;34.35;39.42;99136.44;5072399;28;20626;-66
2023/06/27 11:00:32;;;;;;;0.90;0.90;;;;;;;34.29;39.46;99141.53;5072266;28;20242;-65
2023/06/27 11:03:03;;;;;;;0.55;0.50;;;;;;;34.10;38.99;99136.16;5072441;28;20279;-66
2023/06/27 11:05:58;;;;;;;0.88;0.68;;;;;;;33.57;40.68;99140.53;5071974;28;20203;-66
2023/06/27 11:08:29;;;;;;;0.43;0.43;;;;;;;33.20;41.40;99134.66;5071975;28;20695;-65
2023/06/27 11:11:04;;;;;;;0.50;0.50;;;;;;;33.04;42.29;99132.31;5072297;28;20632;-65
2023/06/27 11:13:33;;;;;;;0.55;0.55;;;;;;;32.84;42.43;99133.19;5071551;28;20235;-65
2023/06/27 11:16:02;;;;;;;0.52;0.52;;;;;;;32.75;42.55;99124.56;5071789;28;20268;-65
2023/06/27 11:18:28;;;;;;;0.70;0.70;;;;;;;32.75;43.90;99113.94;5072178;28;20277;-65
2023/06/27 11:20:57;;;;;;;0.55;0.55;;;;;;;32.88;45.09;99114.03;5072153;28;20269;-66
2023/06/27 11:23:25;;;;;;;0.40;0.40;;;;;;;32.64;45.16;99091.41;5071923;28;20208;-65
2023/06/27 11:25:53;;;;;;;0.43;0.43;;;;;;;32.86;44.77;99109.94;5071985;28;20220;-65
2023/06/27 11:28:21;;;;;;;0.50;0.50;;;;;;;32.82;44.31;99114.00;5071416;28;20285;-65
2023/06/27 11:30:48;;;;;;;0.40;0.40;;;;;;;32.90;44.76;99100.53;5071541;28;20200;-65
2023/06/27 11:33:19;;;;;;;0.60;0.60;;;;;;;32.93;43.50;99095.66;5071684;28;20203;-65